createdAt,value
2022-08-19T00:02:36.891Z,43.02
2022-08-19T00:05:38.635Z,43.31
2022-08-19T00:08:40.683Z,43.05
2022-08-19T00:11:46.942Z,42.71
2022-08-19T00:14:48.757Z,42.39
2022-08-19T00:17:50.628Z,42.49
2022-08-19T00:20:52.706Z,42.30
2022-08-19T00:23:59.285Z,42.75
2022-08-19T00:27:26.312Z,42.32
2022-08-19T00:30:24.391Z,42.29
2022-08-19T00:33:26.851Z,43.14
2022-08-19T00:36:33.993Z,43.15
2022-08-19T00:39:35.825Z,43.04
2022-08-19T00:42:38.569Z,43.16
2022-08-19T00:45:44.676Z,43.42
2022-08-19T00:48:46.394Z,43.18
2022-08-19T00:51:52.694Z,43.52
2022-08-19T00:54:54.568Z,43.48
2022-08-19T00:58:01.500Z,43.64
2022-08-19T01:01:05.170Z,43.76
2022-08-19T01:04:07.235Z,44.11
2022-08-19T01:07:09.227Z,44.41
2022-08-19T01:10:20.083Z,44.88
2022-08-19T01:13:26.732Z,44.67
2022-08-19T01:16:30.875Z,44.79
2022-08-19T01:19:43.656Z,45.15
2022-08-19T01:22:50.031Z,44.86
2022-08-19T01:25:54.716Z,44.98
2022-08-19T01:28:59.647Z,45.28
2022-08-19T01:32:03.134Z,45.16
2022-08-19T01:35:05.877Z,45.27
2022-08-19T01:38:11.048Z,45.00
2022-08-19T01:41:14.229Z,44.84
2022-08-19T01:44:19.327Z,44.69
2022-08-19T01:47:21.155Z,44.83
2022-08-19T01:50:23.244Z,44.78
2022-08-19T01:53:26.716Z,44.53
2022-08-19T01:56:35.746Z,44.46
2022-08-19T01:59:37.764Z,44.63
2022-08-19T02:02:40.720Z,45.05
2022-08-19T02:05:46.721Z,45.14
2022-08-19T02:08:48.846Z,44.83
2022-08-19T02:11:52.975Z,44.92
2022-08-19T02:14:54.694Z,45.43
2022-08-19T02:17:56.430Z,45.27
2022-08-19T02:20:58.146Z,45.73
2022-08-19T02:24:00.112Z,46.09
2022-08-19T02:27:01.906Z,46.16
2022-08-19T02:30:06.318Z,46.16
2022-08-19T02:33:08.099Z,45.77
2022-08-19T02:36:11.097Z,46.10
2022-08-19T02:39:13.118Z,45.99
2022-08-19T02:42:14.772Z,45.37
2022-08-19T02:45:16.650Z,45.97
2022-08-19T02:48:23.386Z,46.75
2022-08-19T02:51:28.573Z,47.06
2022-08-19T02:54:30.308Z,47.88
2022-08-19T02:57:32.827Z,48.34
2022-08-19T03:00:34.620Z,48.30
2022-08-19T03:03:43.804Z,48.79
2022-08-19T03:06:47.688Z,48.48
2022-08-19T03:09:49.415Z,48.06
2022-08-19T03:12:51.245Z,47.44
2022-08-19T03:15:53.126Z,47.30
2022-08-19T03:18:57.340Z,47.13
2022-08-19T03:21:59.592Z,48.49
2022-08-19T03:25:01.312Z,49.89
2022-08-19T03:28:03.241Z,49.63
2022-08-19T03:31:42.110Z,48.64
2022-08-19T03:34:35.566Z,49.47
2022-08-19T03:37:37.272Z,49.88
2022-08-19T03:40:43.944Z,49.30
2022-08-19T03:43:47.691Z,48.79
2022-08-19T03:46:56.134Z,49.54
2022-08-19T03:49:57.964Z,50.01
2022-08-19T03:53:00.171Z,50.59
2022-08-19T03:56:02.306Z,49.94
2022-08-19T03:59:06.416Z,49.85
2022-08-19T04:02:11.844Z,50.70
2022-08-19T04:05:15.052Z,50.52
2022-08-19T04:08:19.950Z,49.66
2022-08-19T04:11:24.927Z,49.68
2022-08-19T04:14:45.846Z,49.52
2022-08-19T04:17:47.641Z,49.27
2022-08-19T04:20:49.737Z,49.10
2022-08-19T04:23:52.170Z,48.39
2022-08-19T04:26:53.961Z,48.75
2022-08-19T04:29:56.125Z,48.30
2022-08-19T04:32:57.857Z,48.28
2022-08-19T04:35:59.740Z,48.29
2022-08-19T04:39:05.926Z,47.89
2022-08-19T04:42:30.863Z,48.10
2022-08-19T04:45:39.623Z,47.77
2022-08-19T04:48:49.432Z,47.35
2022-08-19T04:51:55.115Z,47.06
2022-08-19T04:54:56.850Z,47.70
2022-08-19T04:57:58.530Z,47.38
2022-08-19T05:01:02.004Z,48.36
2022-08-19T05:04:07.144Z,48.51
2022-08-19T05:07:09.465Z,48.04
2022-08-19T05:10:11.281Z,48.66
2022-08-19T05:13:13.023Z,48.51
2022-08-19T05:16:16.949Z,48.29
2022-08-19T05:19:37.158Z,48.17
2022-08-19T05:22:38.980Z,48.47
2022-08-19T05:25:41.376Z,48.73
2022-08-19T05:28:43.412Z,48.03
2022-08-19T05:31:46.001Z,47.56
2022-08-19T05:34:47.751Z,48.39
2022-08-19T05:37:49.499Z,48.77
2022-08-19T05:40:58.695Z,48.03
2022-08-19T05:44:04.119Z,48.31
2022-08-19T05:47:09.365Z,47.83
2022-08-19T05:50:11.509Z,48.90
2022-08-19T05:53:15.546Z,49.04
2022-08-19T05:56:18.850Z,47.20
2022-08-19T05:59:22.415Z,47.46
2022-08-19T06:02:31.710Z,48.09
2022-08-19T06:05:33.742Z,47.09
2022-08-19T06:08:51.671Z,46.46
2022-08-19T06:11:56.318Z,46.62
2022-08-19T06:15:01.002Z,46.30
2022-08-19T06:18:04.518Z,47.53
2022-08-19T06:21:06.301Z,46.82
2022-08-19T06:24:10.812Z,47.49
2022-08-19T06:27:12.614Z,48.39
2022-08-19T06:30:15.118Z,48.00
2022-08-19T06:33:16.957Z,48.55
2022-08-19T06:36:32.210Z,49.21
2022-08-19T06:39:39.621Z,49.61
2022-08-19T06:42:51.786Z,48.96
2022-08-19T06:45:56.958Z,49.28
2022-08-19T06:49:01.455Z,47.43
2022-08-19T06:52:04.385Z,47.86
2022-08-19T06:55:07.153Z,46.71
2022-08-19T06:58:10.208Z,46.13
2022-08-19T07:01:11.975Z,45.66
2022-08-19T07:04:16.611Z,45.97
2022-08-19T07:07:21.123Z,44.70
2022-08-19T07:10:23.362Z,45.15
2022-08-19T07:13:27.787Z,45.11
2022-08-19T07:16:29.766Z,42.82
2022-08-19T07:19:32.395Z,43.27
2022-08-19T07:22:35.794Z,42.08
2022-08-19T07:25:38.848Z,41.25
2022-08-19T07:28:46.134Z,41.91
2022-08-19T07:31:59.997Z,40.93
2022-08-19T07:35:04.303Z,40.68
2022-08-19T07:38:06.090Z,42.42
2022-08-19T07:41:10.215Z,41.62
2022-08-19T07:44:13.471Z,40.95
2022-08-19T07:47:50.286Z,40.73
2022-08-19T07:50:38.703Z,39.64
2022-08-19T07:53:40.735Z,40.00
2022-08-19T07:56:42.638Z,40.83
2022-08-19T07:59:44.430Z,40.26
2022-08-19T08:02:46.171Z,40.28
2022-08-19T08:06:24.464Z,39.10
2022-08-19T08:09:39.386Z,39.05
2022-08-19T08:12:42.423Z,38.13
2022-08-19T08:15:45.591Z,37.52
2022-08-19T08:18:50.695Z,37.05
2022-08-19T08:21:58.345Z,37.27
2022-08-19T08:25:05.315Z,38.13
2022-08-19T08:28:11.439Z,37.65
2022-08-19T08:31:20.207Z,36.60
2022-08-19T08:34:22.436Z,35.46
2022-08-19T08:37:24.276Z,36.11
2022-08-19T08:40:55.708Z,34.23
2022-08-19T08:43:59.425Z,33.42
2022-08-19T08:47:08.880Z,34.16
2022-08-19T08:50:20.340Z,34.60
2022-08-19T08:53:29.712Z,32.05
2022-08-19T08:56:34.140Z,32.11
2022-08-19T08:59:40.050Z,32.54
2022-08-19T09:02:41.775Z,31.58
2022-08-19T09:06:11.999Z,31.67
2022-08-19T09:09:24.622Z,32.16
2022-08-19T09:12:56.135Z,31.34
2022-08-19T09:16:07.566Z,31.36
2022-08-19T09:19:11.613Z,32.47
2022-08-19T09:22:13.799Z,30.90
2022-08-19T09:25:29.545Z,30.47
2022-08-19T09:28:32.461Z,30.42
2022-08-19T09:31:34.233Z,29.79
2022-08-19T09:34:37.889Z,30.39
2022-08-19T09:37:40.454Z,31.96
2022-08-19T09:40:42.276Z,30.03
2022-08-19T09:43:47.936Z,29.74
2022-08-19T09:46:50.408Z,30.72
2022-08-19T09:49:52.227Z,30.75
2022-08-19T09:52:57.189Z,31.77
2022-08-19T09:55:59.514Z,30.56
2022-08-19T09:59:03.333Z,29.32
2022-08-19T10:02:11.006Z,29.27
2022-08-19T10:05:38.857Z,30.44
2022-08-19T10:08:50.185Z,32.19
2022-08-19T10:11:54.809Z,35.73
2022-08-19T10:14:57.227Z,36.38
2022-08-19T10:18:00.277Z,36.51
2022-08-19T10:21:23.934Z,36.13
2022-08-19T10:24:28.932Z,36.75
2022-08-19T10:27:32.498Z,38.16
2022-08-19T10:30:36.270Z,38.05
2022-08-19T10:33:53.624Z,37.74
2022-08-19T10:37:01.285Z,37.96
2022-08-19T10:40:08.540Z,41.29
2022-08-19T10:43:10.698Z,44.26
2022-08-19T10:46:16.670Z,43.30
2022-08-19T10:49:20.349Z,42.14
2022-08-19T10:52:39.050Z,42.45
2022-08-19T10:55:59.396Z,42.33
2022-08-19T10:59:04.037Z,41.49
2022-08-19T11:02:12.963Z,40.74
2022-08-19T11:05:16.308Z,39.34
2022-08-19T11:08:23.206Z,38.30
2022-08-19T11:11:25.923Z,37.70
2022-08-19T11:14:28.276Z,36.77
2022-08-19T11:17:33.997Z,36.58
2022-08-19T11:20:35.706Z,36.82
2022-08-19T11:23:37.967Z,36.39
2022-08-19T11:26:42.332Z,34.84
2022-08-19T11:29:44.077Z,34.16
2022-08-19T11:32:49.374Z,33.74
2022-08-19T11:35:51.523Z,33.68
2022-08-19T11:38:54.061Z,33.02
2022-08-19T11:41:56.836Z,33.53
2022-08-19T11:44:58.585Z,34.53
2022-08-19T11:48:00.411Z,34.44
2022-08-19T11:51:10.383Z,35.29
2022-08-19T11:54:14.319Z,35.21
2022-08-19T11:57:17.926Z,35.77
2022-08-19T12:00:19.960Z,34.13
2022-08-19T12:03:22.178Z,34.46
2022-08-19T12:06:29.702Z,34.45
2022-08-19T12:09:32.824Z,33.36
2022-08-19T12:12:34.652Z,34.32
2022-08-19T12:15:38.634Z,35.64
2022-08-19T12:18:44.357Z,36.34
2022-08-19T12:21:46.177Z,38.67
2022-08-19T12:24:49.023Z,40.35
2022-08-19T12:27:57.243Z,42.50
2022-08-19T12:30:59.751Z,44.40
2022-08-19T12:34:02.470Z,45.52
2022-08-19T12:37:06.428Z,45.00
2022-08-19T12:40:08.880Z,45.57
2022-08-19T12:43:12.594Z,47.28
2022-08-19T12:46:15.197Z,45.91
2022-08-19T12:49:52.256Z,46.12
2022-08-19T12:52:43.394Z,46.76
2022-08-19T12:55:45.272Z,48.31
2022-08-19T12:58:48.678Z,47.17
2022-08-19T13:01:50.836Z,49.10
2022-08-19T13:04:52.564Z,50.52
2022-08-19T13:07:58.301Z,48.92
2022-08-19T13:11:12.814Z,50.69
2022-08-19T13:14:14.655Z,50.75
2022-08-19T13:17:16.697Z,51.95
2022-08-19T13:20:20.539Z,51.65
2022-08-19T13:23:22.678Z,52.21
2022-08-19T13:26:24.759Z,51.39
2022-08-19T13:29:45.032Z,50.92
2022-08-19T13:33:05.355Z,50.36
2022-08-19T13:36:08.911Z,51.01
2022-08-19T13:39:11.217Z,48.15
2022-08-19T13:42:14.947Z,48.35
2022-08-19T13:45:20.622Z,47.71
2022-08-19T13:48:23.265Z,47.97
2022-08-19T13:51:25.175Z,46.23
2022-08-19T13:54:28.009Z,46.31
2022-08-19T13:57:29.771Z,46.95
2022-08-19T14:00:35.731Z,46.52
2022-08-19T14:03:38.923Z,43.85
2022-08-19T14:06:40.673Z,40.89
2022-08-19T14:09:42.513Z,41.49
2022-08-19T14:12:45.342Z,40.94
2022-08-19T14:15:48.425Z,42.13
2022-08-19T14:18:50.311Z,40.86
2022-08-19T14:21:52.079Z,40.27
2022-08-19T14:24:53.821Z,40.07
2022-08-19T14:27:56.750Z,40.09
2022-08-19T14:30:58.655Z,39.51
2022-08-19T14:34:00.599Z,39.41
2022-08-19T14:37:02.473Z,38.39
2022-08-19T14:40:05.439Z,38.15
2022-08-19T14:43:07.271Z,37.67
2022-08-19T14:46:11.223Z,37.24
2022-08-19T14:49:13.318Z,36.54
2022-08-19T14:52:15.266Z,37.59
2022-08-19T14:55:19.026Z,38.11
2022-08-19T14:58:29.805Z,38.85
2022-08-19T15:01:32.231Z,39.62
2022-08-19T15:04:34.257Z,40.50
2022-08-19T15:07:36.105Z,41.11
2022-08-19T15:10:40.045Z,40.69
2022-08-19T15:13:42.726Z,41.19
2022-08-19T15:16:44.471Z,40.72
2022-08-19T15:19:46.749Z,40.66
2022-08-19T15:22:48.571Z,41.15
2022-08-19T15:25:56.525Z,40.80
2022-08-19T15:29:00.313Z,40.45
2022-08-19T15:32:02.048Z,40.12
2022-08-19T15:35:06.065Z,39.67
2022-08-19T15:38:08.738Z,40.30
2022-08-19T15:41:25.566Z,38.88
2022-08-19T15:44:27.563Z,38.82
2022-08-19T15:47:34.421Z,38.45
2022-08-19T15:50:37.753Z,38.25
2022-08-19T15:53:40.881Z,37.65
2022-08-19T15:57:01.190Z,38.23
2022-08-19T16:00:22.400Z,37.58
2022-08-19T16:03:47.564Z,38.43
2022-08-19T16:06:52.909Z,38.72
2022-08-19T16:09:54.534Z,38.03
2022-08-19T16:12:58.148Z,37.40
2022-08-19T16:16:00.000Z,37.94
2022-08-19T16:19:10.314Z,37.67
2022-08-19T16:22:14.026Z,38.70
2022-08-19T16:25:16.100Z,38.72
2022-08-19T16:28:17.831Z,38.64
2022-08-19T16:31:19.545Z,38.86
2022-08-19T16:34:21.974Z,39.10
2022-08-19T16:37:23.796Z,39.71
2022-08-19T16:40:25.780Z,39.11
2022-08-19T16:43:29.303Z,39.51
2022-08-19T16:46:31.132Z,38.94
2022-08-19T16:49:54.540Z,40.80
2022-08-19T16:52:58.751Z,41.34
2022-08-19T16:56:01.452Z,41.71
2022-08-19T16:59:03.685Z,41.88
2022-08-19T17:02:05.703Z,42.54
2022-08-19T17:05:10.780Z,42.97
2022-08-19T17:08:13.888Z,42.91
2022-08-19T17:11:18.514Z,43.62
2022-08-19T17:14:21.969Z,43.83
2022-08-19T17:17:27.041Z,44.56
2022-08-19T17:20:31.594Z,45.11
2022-08-19T17:23:42.646Z,46.01
2022-08-19T17:26:45.947Z,46.29
2022-08-19T17:29:48.157Z,46.50
2022-08-19T17:32:50.427Z,45.90
2022-08-19T17:35:52.187Z,47.10
2022-08-19T17:38:58.046Z,46.72
2022-08-19T17:42:02.577Z,47.13
2022-08-19T17:45:06.174Z,46.77
2022-08-19T17:48:10.514Z,47.76
2022-08-19T17:51:35.707Z,47.33
2022-08-19T17:54:37.454Z,48.42
2022-08-19T17:57:41.216Z,49.01
2022-08-19T18:00:53.695Z,49.07
2022-08-19T18:03:55.900Z,48.61
2022-08-19T18:06:58.412Z,48.94
2022-08-19T18:10:01.811Z,48.62
2022-08-19T18:13:17.630Z,48.85
2022-08-19T18:16:22.073Z,48.19
2022-08-19T18:19:25.546Z,47.79
2022-08-19T18:22:36.989Z,47.41
2022-08-19T18:25:41.993Z,47.40
2022-08-19T18:28:49.712Z,47.43
2022-08-19T18:31:51.813Z,47.39
2022-08-19T18:34:54.885Z,47.49
2022-08-19T18:37:59.130Z,47.54
2022-08-19T18:41:20.108Z,51.37
2022-08-19T18:44:40.523Z,53.98
2022-08-19T18:48:00.603Z,54.94
2022-08-19T18:51:02.508Z,56.75
2022-08-19T18:54:04.509Z,56.73
2022-08-19T18:57:07.272Z,58.04
2022-08-19T19:00:10.454Z,58.47
2022-08-19T19:03:12.188Z,60.18
2022-08-19T19:06:18.993Z,60.60
2022-08-19T19:09:24.650Z,61.63
2022-08-19T19:12:29.863Z,61.77
2022-08-19T19:15:32.876Z,61.10
2022-08-19T19:18:35.045Z,61.49
2022-08-19T19:21:36.772Z,61.74
2022-08-19T19:24:40.419Z,62.41
2022-08-19T19:27:42.125Z,62.72
2022-08-19T19:30:43.905Z,63.71
2022-08-19T19:33:46.478Z,64.66
2022-08-19T19:36:49.985Z,64.76
2022-08-19T19:39:52.484Z,65.94
2022-08-19T19:42:55.664Z,65.20
2022-08-19T19:45:57.660Z,61.92
2022-08-19T19:49:00.382Z,65.51
2022-08-19T19:52:02.265Z,66.39
2022-08-19T19:55:04.398Z,65.27
2022-08-19T19:58:07.018Z,64.35
2022-08-19T20:01:12.613Z,66.57
2022-08-19T20:04:19.289Z,67.82
2022-08-19T20:07:40.954Z,69.65
2022-08-19T20:10:43.772Z,70.28
2022-08-19T20:13:45.541Z,70.38
2022-08-19T20:16:49.180Z,70.56
2022-08-19T20:19:51.014Z,71.00
2022-08-19T20:22:53.854Z,72.23
2022-08-19T20:25:55.831Z,71.13
2022-08-19T20:29:13.254Z,70.09
2022-08-19T20:32:19.360Z,66.99
2022-08-19T20:35:21.720Z,69.69
2022-08-19T20:38:23.429Z,70.47
2022-08-19T20:41:25.308Z,69.46
2022-08-19T20:44:27.075Z,68.49
2022-08-19T20:47:31.262Z,70.72
2022-08-19T20:50:35.074Z,67.65
2022-08-19T20:53:38.570Z,70.11
2022-08-19T20:56:40.369Z,70.81
2022-08-19T20:59:42.097Z,70.77
2022-08-19T21:02:43.974Z,71.25
2022-08-19T21:05:46.473Z,71.28
2022-08-19T21:08:48.894Z,71.08
2022-08-19T21:11:51.060Z,71.59
2022-08-19T21:14:52.923Z,69.36
2022-08-19T21:17:54.803Z,71.64
2022-08-19T21:20:56.701Z,72.18
2022-08-19T21:23:58.522Z,72.88
2022-08-19T21:27:00.566Z,72.07
2022-08-19T21:30:03.903Z,71.28
2022-08-19T21:33:06.394Z,72.04
2022-08-19T21:36:09.511Z,72.19
2022-08-19T21:39:11.386Z,71.54
2022-08-19T21:42:14.360Z,70.40
2022-08-19T21:45:19.709Z,70.88
2022-08-19T21:48:21.433Z,70.99
2022-08-19T21:51:23.225Z,71.37
2022-08-19T21:54:25.005Z,69.89
2022-08-19T21:57:26.730Z,71.35
2022-08-19T22:00:32.209Z,72.59
2022-08-19T22:03:36.406Z,72.19
2022-08-19T22:06:38.085Z,72.57
2022-08-19T22:09:44.571Z,72.21
2022-08-19T22:12:51.271Z,72.35
2022-08-19T22:15:55.167Z,73.14
2022-08-19T22:18:57.397Z,73.74
2022-08-19T22:21:59.140Z,74.66
2022-08-19T22:25:08.867Z,74.79
2022-08-19T22:28:12.857Z,74.17
2022-08-19T22:31:16.103Z,73.74
2022-08-19T22:34:18.466Z,72.42
2022-08-19T22:37:20.353Z,73.85
2022-08-19T22:40:22.086Z,73.00
2022-08-19T22:43:28.536Z,72.68
2022-08-19T22:46:33.637Z,73.09
2022-08-19T22:49:35.544Z,73.30
2022-08-19T22:52:37.313Z,74.52
2022-08-19T22:55:39.333Z,74.68
2022-08-19T22:58:42.245Z,75.20
2022-08-19T23:01:44.222Z,74.90
2022-08-19T23:04:46.005Z,73.63
2022-08-19T23:07:52.454Z,73.10
2022-08-19T23:10:54.344Z,72.26
2022-08-19T23:13:56.048Z,73.00
2022-08-19T23:16:59.233Z,73.99
2022-08-19T23:20:01.417Z,72.92
2022-08-19T23:23:06.268Z,71.13
2022-08-19T23:26:10.783Z,69.17
2022-08-19T23:29:32.203Z,68.09
2022-08-19T23:32:35.251Z,68.22
2022-08-19T23:35:38.374Z,66.34
2022-08-19T23:38:42.994Z,66.57
2022-08-19T23:41:44.721Z,66.86
2022-08-19T23:44:51.277Z,67.09
2022-08-19T23:47:54.542Z,66.67
2022-08-19T23:50:57.203Z,67.15
2022-08-19T23:53:58.962Z,67.19
2022-08-19T23:57:00.677Z,67.33
